Time;durP1;ratioP1;P1;durP2;ratioP2;P2;SDS_P1;SDS_P2;PMS_P1;PMS_P2;Temp;Humidity;BMP_temperature;BMP_pressure;BME280_temperature;BME280_humidity;BME280_pressure;Samples;Min_cycle;Max_cycle;Signal;HPM_P1;HPM_P2
2022/01/06 00:00:35;;;;;;;27.27;13.27;;;;;;;-141.29;100.00;58932.97;5073318;28;20434;-75
2022/01/06 00:03:03;;;;;;;23.93;12.67;;;;;;;-141.29;100.00;58932.97;5074736;28;20442;-74
2022/01/06 00:05:30;;;;;;;36.33;15.60;;;;;;;-141.29;100.00;58932.97;5074611;28;20450;-75
2022/01/06 00:07:57;;;;;;;29.07;13.03;;;;;;;-141.29;100.00;58932.97;5074169;28;20490;-75
2022/01/06 00:10:28;;;;;;;24.50;12.03;;;;;;;-141.29;100.00;58932.97;5075153;28;20525;-75
2022/01/06 00:13:08;;;;;;;26.40;13.13;;;;;;;-141.29;100.00;58932.97;5074544;28;20858;-75
2022/01/06 00:15:40;;;;;;;24.20;12.33;;;;;;;-141.29;100.00;58932.97;5074163;28;20979;-75
2022/01/06 00:23:43;;;;;;;17.90;9.40;;;;;;;-141.29;100.00;58932.97;5074556;28;20418;-73
2022/01/06 00:26:11;;;;;;;21.57;10.07;;;;;;;-141.29;100.00;58932.97;5074062;28;20525;-74
2022/01/06 00:28:39;;;;;;;21.13;9.83;;;;;;;-141.29;100.00;58932.97;5074385;28;20861;-74
2022/01/06 00:31:06;;;;;;;18.20;10.00;;;;;;;-141.29;100.00;58932.97;5073941;28;20447;-75
2022/01/06 00:33:37;;;;;;;15.90;9.47;;;;;;;-141.29;100.00;58932.97;5073920;28;20980;-76
2022/01/06 00:36:04;;;;;;;17.50;9.40;;;;;;;-141.29;100.00;58932.97;5074157;28;20458;-74
2022/01/06 00:38:33;;;;;;;14.80;9.40;;;;;;;-141.29;100.00;58932.97;5074106;28;20455;-73
2022/01/06 00:41:01;;;;;;;17.20;10.03;;;;;;;-141.29;100.00;58932.97;5073988;28;20516;-75
2022/01/06 00:43:28;;;;;;;24.57;10.30;;;;;;;-141.29;100.00;58932.97;5073689;28;20935;-73
2022/01/06 00:45:58;;;;;;;16.20;9.90;;;;;;;-141.29;100.00;58932.97;5073005;28;20470;-75
2022/01/06 00:48:25;;;;;;;15.23;10.07;;;;;;;-141.29;100.00;58932.97;5073775;28;20541;-75
2022/01/06 00:51:04;;;;;;;24.70;11.27;;;;;;;-141.29;100.00;58932.97;5073600;28;20874;-74
2022/01/06 00:53:32;;;;;;;16.40;9.90;;;;;;;-141.29;100.00;58932.97;5073925;28;20499;-74
2022/01/06 00:56:00;;;;;;;24.67;9.97;;;;;;;-141.29;100.00;58932.97;5073859;28;20443;-75
2022/01/06 00:58:30;;;;;;;19.47;11.03;;;;;;;-141.29;100.00;58932.97;5073797;28;20439;-75
2022/01/06 01:01:00;;;;;;;16.50;10.33;;;;;;;-141.29;100.00;58932.97;5072726;28;20449;-74
2022/01/06 01:03:28;;;;;;;18.37;10.90;;;;;;;-141.29;100.00;58932.97;5075376;28;20942;-74
2022/01/06 01:05:57;;;;;;;18.43;10.90;;;;;;;-141.29;100.00;58932.97;5076420;28;20525;-74
2022/01/06 01:08:27;;;;;;;23.13;12.27;;;;;;;-141.29;100.00;58932.97;5073365;28;20455;-75
2022/01/06 01:10:56;;;;;;;21.27;11.27;;;;;;;-141.29;100.00;58932.97;5073001;28;20524;-75
2022/01/06 01:13:29;;;;;;;19.93;12.17;;;;;;;-141.29;100.00;58932.97;5073836;28;20439;-74
2022/01/06 01:16:09;;;;;;;24.70;11.60;;;;;;;-141.29;100.00;58932.97;5073374;28;20446;-74
2022/01/06 01:18:45;;;;;;;20.93;12.23;;;;;;;-141.29;100.00;58932.97;5073421;28;20459;-74
2022/01/06 01:21:12;;;;;;;22.63;11.63;;;;;;;-141.29;100.00;58932.97;5073830;28;20434;-74
2022/01/06 01:23:39;;;;;;;24.33;12.90;;;;;;;-141.29;100.00;58932.97;5073945;28;20431;-74
2022/01/06 01:26:09;;;;;;;25.20;12.40;;;;;;;-141.29;100.00;58932.97;5072951;28;20458;-76
2022/01/06 01:28:44;;;;;;;21.53;12.63;;;;;;;-141.29;100.00;58932.97;5073260;28;20518;-73
2022/01/06 01:31:24;;;;;;;23.00;12.37;;;;;;;-141.29;100.00;58932.97;5073636;28;20456;-74
2022/01/06 01:34:02;;;;;;;26.50;13.10;;;;;;;-141.29;100.00;58932.97;5072956;28;20852;-74
2022/01/06 01:36:29;;;;;;;26.10;13.93;;;;;;;-141.29;100.00;58932.97;5071929;28;20461;-75
2022/01/06 01:38:56;;;;;;;25.40;13.17;;;;;;;-141.29;100.00;58932.97;5073074;28;20434;-75
2022/01/06 01:41:24;;;;;;;14.57;8.27;;;;;;;-141.29;100.00;58932.97;5072785;28;20442;-74
2022/01/06 01:43:58;;;;;;;17.50;9.87;;;;;;;-141.29;100.00;58932.97;5072759;28;20512;-76
2022/01/06 01:46:29;;;;;;;18.13;10.67;;;;;;;-141.29;100.00;58932.97;5072847;28;20494;-74
2022/01/06 01:49:13;;;;;;;10.90;6.40;;;;;;;-141.29;100.00;58932.97;5073564;28;20438;-75
2022/01/06 01:51:40;;;;;;;14.33;7.67;;;;;;;-141.29;100.00;58932.97;5072690;28;20941;-75
2022/01/06 01:54:07;;;;;;;15.93;7.37;;;;;;;-141.29;100.00;58932.97;5072511;28;20446;-74
2022/01/06 01:56:37;;;;;;;20.13;7.53;;;;;;;-141.29;100.00;58932.97;5072097;28;20872;-74
2022/01/06 01:59:08;;;;;;;15.57;8.70;;;;;;;-141.29;100.00;58932.97;5072323;28;20881;-75
2022/01/06 02:01:35;;;;;;;14.93;8.13;;;;;;;-141.29;100.00;58932.97;5073179;28;20511;-75
2022/01/06 02:04:06;;;;;;;12.37;8.10;;;;;;;-141.29;100.00;58932.97;5072291;28;20458;-74
2022/01/06 02:06:35;;;;;;;13.03;8.47;;;;;;;-141.29;100.00;58932.97;5071018;28;20474;-75
2022/01/06 02:09:03;;;;;;;12.20;6.00;;;;;;;-141.29;100.00;58932.97;5071424;28;20948;-76
2022/01/06 02:11:31;;;;;;;11.03;7.30;;;;;;;-141.29;100.00;58932.97;5071116;28;20446;-75
2022/01/06 02:14:04;;;;;;;13.23;7.33;;;;;;;-141.29;100.00;58932.97;5072281;28;20512;-73
2022/01/06 02:16:37;;;;;;;16.33;8.20;;;;;;;-141.29;100.00;58932.97;5073277;28;20438;-75
2022/01/06 02:19:06;;;;;;;12.23;8.03;;;;;;;-141.29;100.00;58932.97;5072271;28;20508;-74
2022/01/06 02:21:42;;;;;;;11.90;7.60;;;;;;;-141.29;100.00;58932.97;5071639;28;20503;-74
2022/01/06 02:24:10;;;;;;;16.47;9.03;;;;;;;-141.29;100.00;58932.97;5072900;28;20438;-73
2022/01/06 02:26:39;;;;;;;14.87;8.30;;;;;;;-141.29;100.00;58932.97;5072193;28;20471;-75
2022/01/06 02:29:08;;;;;;;16.50;9.47;;;;;;;-141.29;100.00;58932.97;5072474;28;20492;-74
2022/01/06 02:31:41;;;;;;;16.70;9.13;;;;;;;-141.29;100.00;58932.97;5071733;28;20488;-75
2022/01/06 02:34:11;;;;;;;18.57;10.83;;;;;;;-141.29;100.00;58932.97;5072052;28;20441;-72
2022/01/06 02:36:40;;;;;;;19.03;11.43;;;;;;;-141.29;100.00;58932.97;5071540;28;20445;-75
2022/01/06 02:39:09;;;;;;;24.50;12.07;;;;;;;-141.29;100.00;58932.97;5071732;28;20450;-75
2022/01/06 02:41:36;;;;;;;22.87;11.80;;;;;;;-141.29;100.00;58932.97;5071898;28;20975;-74
2022/01/06 02:44:09;;;;;;;22.70;11.73;;;;;;;-141.29;100.00;58932.97;5070713;28;20968;-75
2022/01/06 02:46:40;;;;;;;24.67;12.20;;;;;;;-141.29;100.00;58932.97;5072641;28;20828;-73
2022/01/06 02:49:06;;;;;;;22.23;12.13;;;;;;;-141.29;100.00;58932.97;5070646;28;21018;-75
2022/01/06 02:51:34;;;;;;;26.70;12.67;;;;;;;-141.29;100.00;58932.97;5068543;28;20447;-74
2022/01/06 02:54:05;;;;;;;36.97;13.20;;;;;;;-141.29;100.00;58932.97;5072219;28;20528;-74
2022/01/06 02:56:33;;;;;;;22.27;12.37;;;;;;;-141.29;100.00;58932.97;5071735;28;20439;-76
2022/01/06 02:59:00;;;;;;;27.90;14.20;;;;;;;-141.29;100.00;58932.97;5071773;28;20439;-74
2022/01/06 03:01:28;;;;;;;20.10;11.90;;;;;;;-141.29;100.00;58932.97;5071579;28;20435;-75
2022/01/06 03:03:56;;;;;;;20.90;12.27;;;;;;;-141.29;100.00;58932.97;5070497;28;20445;-77
2022/01/06 03:06:23;;;;;;;22.23;11.87;;;;;;;-141.29;100.00;58932.97;5072020;28;20496;-75
2022/01/06 03:08:50;;;;;;;21.57;11.97;;;;;;;-141.29;100.00;58932.97;5071312;28;20536;-73
2022/01/06 03:11:25;;;;;;;20.63;11.87;;;;;;;-141.29;100.00;58932.97;5075168;28;20824;-75
2022/01/06 03:13:53;;;;;;;20.93;10.90;;;;;;;-141.29;100.00;58932.97;5076744;28;20821;-74
2022/01/06 03:16:20;;;;;;;36.43;18.97;;;;;;;-141.29;100.00;58932.97;5080013;28;20868;-73
2022/01/06 03:18:47;;;;;;;35.87;19.50;;;;;;;-141.29;100.00;58932.97;5075897;28;20442;-74
2022/01/06 03:21:17;;;;;;;33.77;17.40;;;;;;;-141.29;100.00;58932.97;5075571;28;20998;-75
2022/01/06 03:23:57;;;;;;;19.47;11.17;;;;;;;-141.29;100.00;58932.97;5075578;28;20442;-73
2022/01/06 03:26:26;;;;;;;20.70;12.13;;;;;;;-141.29;100.00;58932.97;5075581;28;21033;-74
2022/01/06 03:28:55;;;;;;;16.20;9.03;;;;;;;-141.29;100.00;58932.97;5074608;28;20494;-74
2022/01/06 03:31:22;;;;;;;17.23;9.90;;;;;;;-141.29;100.00;58932.97;5075404;28;20832;-73
2022/01/06 03:33:52;;;;;;;19.47;10.77;;;;;;;-141.29;100.00;58932.97;5075340;28;20438;-74
2022/01/06 03:36:20;;;;;;;22.13;11.70;;;;;;;-141.29;100.00;58932.97;5073908;28;20455;-74
2022/01/06 03:38:49;;;;;;;19.67;10.80;;;;;;;-141.29;100.00;58932.97;5074892;28;20499;-75
2022/01/06 03:41:16;;;;;;;17.03;8.97;;;;;;;-141.29;100.00;58932.97;5074612;28;20454;-75
2022/01/06 03:43:44;;;;;;;16.13;8.60;;;;;;;-141.29;100.00;58932.97;5074790;28;20511;-74
2022/01/06 03:46:12;;;;;;;15.47;9.30;;;;;;;-141.29;100.00;58932.97;5074713;28;20859;-75
2022/01/06 03:48:39;;;;;;;19.67;9.83;;;;;;;-141.29;100.00;58932.97;5074727;28;21012;-74
2022/01/06 03:51:10;;;;;;;17.70;9.53;;;;;;;-141.29;100.00;58932.97;5074607;28;20458;-75
2022/01/06 03:53:49;;;;;;;16.70;8.43;;;;;;;-141.29;100.00;58932.97;5075212;28;20434;-73
2022/01/06 03:56:17;;;;;;;18.67;10.43;;;;;;;-141.29;100.00;58932.97;5074289;28;20478;-75
2022/01/06 03:58:45;;;;;;;13.17;8.70;;;;;;;-141.29;100.00;58932.97;5074784;28;20945;-73
2022/01/06 04:01:12;;;;;;;14.33;9.23;;;;;;;-141.29;100.00;58932.97;5074233;28;20438;-74
2022/01/06 04:03:43;;;;;;;21.10;10.40;;;;;;;-141.29;100.00;58932.97;5075040;28;20816;-73
2022/01/06 04:06:11;;;;;;;62.93;21.77;;;;;;;-141.29;100.00;58932.97;5074570;28;20438;-73
2022/01/06 04:08:39;;;;;;;49.73;19.67;;;;;;;-141.29;100.00;58932.97;5074689;28;20575;-76
2022/01/06 04:11:06;;;;;;;91.47;31.57;;;;;;;-141.29;100.00;58932.97;5074464;28;20496;-73
2022/01/06 04:13:34;;;;;;;84.50;29.53;;;;;;;-141.29;100.00;58932.97;5074619;28;20435;-74
2022/01/06 04:16:09;;;;;;;90.07;30.50;;;;;;;-141.29;100.00;58932.97;5074087;28;20446;-74
2022/01/06 04:18:36;;;;;;;97.53;32.87;;;;;;;-141.29;100.00;58932.97;5074821;28;20520;-74
2022/01/06 04:21:07;;;;;;;64.37;23.70;;;;;;;-141.29;100.00;58932.97;5073875;28;20435;-73
2022/01/06 04:23:38;;;;;;;65.63;24.87;;;;;;;-141.29;100.00;58932.97;5074451;28;20454;-75
2022/01/06 04:26:06;;;;;;;37.50;16.60;;;;;;;-141.29;100.00;58932.97;5074247;28;20482;-74
2022/01/06 04:28:36;;;;;;;36.10;14.73;;;;;;;-141.29;100.00;58932.97;5074534;28;20866;-75
2022/01/06 04:31:05;;;;;;;31.67;13.90;;;;;;;-141.29;100.00;58932.97;5074226;28;20458;-75
2022/01/06 04:33:33;;;;;;;26.90;13.43;;;;;;;-141.29;100.00;58932.97;5073876;28;20872;-76
2022/01/06 04:36:00;;;;;;;34.53;15.00;;;;;;;-141.29;100.00;58932.97;5073992;28;20462;-75
2022/01/06 04:38:27;;;;;;;35.03;16.27;;;;;;;-141.29;100.00;58932.97;5074082;28;20443;-75
2022/01/06 04:40:56;;;;;;;26.90;13.07;;;;;;;-141.29;100.00;58932.97;5072665;28;20443;-73
2022/01/06 04:43:23;;;;;;;52.20;23.13;;;;;;;-141.29;100.00;58932.97;5073808;28;20430;-75
2022/01/06 04:45:50;;;;;;;44.30;20.47;;;;;;;-141.29;100.00;58932.97;5073577;28;20486;-75
2022/01/06 04:48:27;;;;;;;26.87;14.10;;;;;;;-141.29;100.00;58932.97;5073711;28;20466;-75
2022/01/06 04:50:56;;;;;;;25.53;13.60;;;;;;;-141.29;100.00;58932.97;5073812;28;20435;-74
2022/01/06 04:53:22;;;;;;;22.00;11.33;;;;;;;-141.29;100.00;58932.97;5073703;28;20999;-74
2022/01/06 04:55:51;;;;;;;23.57;11.30;;;;;;;-141.29;100.00;58932.97;5073219;28;20473;-73
2022/01/06 04:58:18;;;;;;;23.20;11.90;;;;;;;-141.29;100.00;58932.97;5073341;28;20439;-75
2022/01/06 05:01:02;;;;;;;27.50;12.73;;;;;;;-141.29;100.00;58932.97;5073865;28;20430;-75
2022/01/06 05:03:30;;;;;;;20.00;11.43;;;;;;;-141.29;100.00;58932.97;5073809;28;20557;-76
2022/01/06 05:05:57;;;;;;;19.47;12.37;;;;;;;-141.29;100.00;58932.97;5073497;28;20484;-74
2022/01/06 05:08:24;;;;;;;23.53;13.00;;;;;;;-141.29;100.00;58932.97;5073071;28;20486;-74
2022/01/06 05:10:51;;;;;;;24.77;12.93;;;;;;;-141.29;100.00;58932.97;5073903;28;20438;-73
2022/01/06 05:13:18;;;;;;;22.00;12.13;;;;;;;-141.29;100.00;58932.97;5073478;28;20511;-74
2022/01/06 05:15:47;;;;;;;26.10;13.10;;;;;;;-141.29;100.00;58932.97;5073500;28;20504;-75
2022/01/06 05:18:14;;;;;;;22.20;11.87;;;;;;;-141.29;100.00;58932.97;5072923;28;20512;-73
2022/01/06 05:20:43;;;;;;;19.53;10.90;;;;;;;-141.29;100.00;58932.97;5073216;28;20447;-73
2022/01/06 05:23:13;;;;;;;19.00;10.93;;;;;;;-141.29;100.00;58932.97;5073283;28;20933;-74
2022/01/06 05:25:40;;;;;;;18.97;10.67;;;;;;;-141.29;100.00;58932.97;5076091;28;20463;-75
2022/01/06 05:28:26;;;;;;;20.33;10.70;;;;;;;-141.29;100.00;58932.97;5077248;28;20479;-75
2022/01/06 05:30:54;;;;;;;24.03;12.50;;;;;;;-141.29;100.00;58932.97;5072389;28;20872;-76
2022/01/06 05:33:24;;;;;;;18.57;9.97;;;;;;;-141.29;100.00;58932.97;5072504;28;20865;-73
2022/01/06 05:35:54;;;;;;;18.57;9.37;;;;;;;-141.29;100.00;58932.97;5072704;28;20550;-73
2022/01/06 05:38:21;;;;;;;17.07;9.57;;;;;;;-141.29;100.00;58932.97;5072752;28;20492;-76
2022/01/06 05:40:49;;;;;;;15.17;8.93;;;;;;;-141.29;100.00;58932.97;5072525;28;20449;-75
2022/01/06 05:43:19;;;;;;;19.10;10.00;;;;;;;-141.29;100.00;58932.97;5072352;28;20458;-76
2022/01/06 05:45:47;;;;;;;10.60;5.97;;;;;;;-141.29;100.00;58932.97;5072730;28;20478;-75
2022/01/06 05:48:17;;;;;;;19.67;9.57;;;;;;;-141.29;100.00;58932.97;5072401;28;21070;-73
2022/01/06 05:50:48;;;;;;;17.03;8.97;;;;;;;-141.29;100.00;58932.97;5073008;28;20854;-74
2022/01/06 05:53:17;;;;;;;19.20;11.13;;;;;;;-141.29;100.00;58932.97;5072645;28;20522;-75
2022/01/06 05:55:45;;;;;;;16.33;9.47;;;;;;;-141.29;100.00;58932.97;5072561;28;20462;-75
2022/01/06 05:58:13;;;;;;;20.87;11.07;;;;;;;-141.29;100.00;58932.97;5072689;28;20476;-75
2022/01/06 06:00:40;;;;;;;27.57;15.40;;;;;;;-141.29;100.00;58932.97;5073067;28;20439;-75
2022/01/06 06:03:07;;;;;;;25.83;15.20;;;;;;;-141.29;100.00;58932.97;5071063;28;20442;-74
2022/01/06 06:05:35;;;;;;;26.17;11.83;;;;;;;-141.29;100.00;58932.97;5072344;28;20496;-76
2022/01/06 06:08:07;;;;;;;19.60;9.70;;;;;;;-141.29;100.00;58932.97;5072129;28;20509;-75
2022/01/06 06:10:40;;;;;;;16.67;8.47;;;;;;;-141.29;100.00;58932.97;5071835;28;20809;-74
2022/01/06 06:13:07;;;;;;;14.00;8.80;;;;;;;-141.29;100.00;58932.97;5073155;28;20461;-74
2022/01/06 06:15:39;;;;;;;19.87;9.60;;;;;;;-141.29;100.00;58932.97;5071756;28;20451;-75
2022/01/06 06:18:09;;;;;;;17.43;9.50;;;;;;;-141.29;100.00;58932.97;5072133;28;20442;-74
2022/01/06 06:21:06;;;;;;;14.40;7.00;;;;;;;-141.29;100.00;58932.97;5072205;28;20480;-75
2022/01/06 06:23:34;;;;;;;20.57;9.07;;;;;;;-141.29;100.00;58932.97;5071939;28;20439;-77
2022/01/06 06:26:03;;;;;;;18.83;10.07;;;;;;;-141.29;100.00;58932.97;5071871;28;20515;-73
2022/01/06 06:28:33;;;;;;;17.70;9.83;;;;;;;-141.29;100.00;58932.97;5072113;28;20486;-75
2022/01/06 06:31:03;;;;;;;12.83;7.37;;;;;;;-141.29;100.00;58932.97;5071916;28;20507;-74
2022/01/06 06:33:30;;;;;;;18.07;8.87;;;;;;;-141.29;100.00;58932.97;5072569;28;20529;-74
2022/01/06 06:35:58;;;;;;;22.37;13.13;;;;;;;-141.29;100.00;58932.97;5071971;28;20504;-75
2022/01/06 06:38:27;;;;;;;17.00;7.80;;;;;;;-141.29;100.00;58932.97;5072014;28;20507;-75
2022/01/06 06:40:56;;;;;;;15.50;8.70;;;;;;;-141.29;100.00;58932.97;5071724;28;20456;-74
2022/01/06 06:43:35;;;;;;;16.43;8.83;;;;;;;-141.29;100.00;58932.97;5071704;28;20865;-74
2022/01/06 06:46:03;;;;;;;18.87;11.10;;;;;;;-141.29;100.00;58932.97;5071041;28;20477;-75
2022/01/06 06:48:33;;;;;;;23.20;10.43;;;;;;;-141.29;100.00;58932.97;5071429;28;20536;-73
2022/01/06 06:51:02;;;;;;;16.90;9.70;;;;;;;-141.29;100.00;58932.97;5070619;28;20435;-76
2022/01/06 06:53:29;;;;;;;15.07;9.63;;;;;;;-141.29;100.00;58932.97;5071536;28;20445;-76
2022/01/06 06:56:00;;;;;;;20.03;9.33;;;;;;;-141.29;100.00;58932.97;5071635;28;20434;-73
2022/01/06 06:58:29;;;;;;;21.93;10.00;;;;;;;-141.29;100.00;58932.97;5071763;28;20450;-74
2022/01/06 07:00:57;;;;;;;18.87;11.17;;;;;;;-141.29;100.00;58932.97;5071824;28;20496;-74
2022/01/06 07:03:24;;;;;;;19.90;10.70;;;;;;;-141.29;100.00;58932.97;5071418;28;20500;-75
2022/01/06 07:05:52;;;;;;;16.70;9.03;;;;;;;-141.29;100.00;58932.97;5071548;28;20476;-77
2022/01/06 07:08:19;;;;;;;20.53;9.83;;;;;;;-141.29;100.00;58932.97;5071725;28;20481;-75
2022/01/06 07:10:47;;;;;;;18.47;10.23;;;;;;;-141.29;100.00;58932.97;5071451;28;20500;-76
2022/01/06 07:13:16;;;;;;;21.87;11.60;;;;;;;-141.29;100.00;58932.97;5071580;28;20504;-75
2022/01/06 07:15:46;;;;;;;14.73;8.77;;;;;;;-141.29;100.00;58932.97;5071853;28;20491;-74
2022/01/06 07:18:16;;;;;;;13.97;8.33;;;;;;;-141.29;100.00;58932.97;5071857;28;20579;-74
2022/01/06 07:20:44;;;;;;;19.40;9.63;;;;;;;-141.29;100.00;58932.97;5071367;28;20492;-73
2022/01/06 07:23:13;;;;;;;18.60;9.97;;;;;;;-141.29;100.00;58932.97;5071067;28;20438;-75
2022/01/06 07:25:40;;;;;;;16.30;10.33;;;;;;;-141.29;100.00;58932.97;5071405;28;20459;-76
2022/01/06 07:28:08;;;;;;;23.53;10.60;;;;;;;-141.29;100.00;58932.97;5071192;28;20519;-74
2022/01/06 07:30:36;;;;;;;29.53;11.30;;;;;;;-141.29;100.00;58932.97;5071269;28;20439;-75
2022/01/06 07:33:05;;;;;;;22.90;10.90;;;;;;;-141.29;100.00;58932.97;5072167;28;20795;-76
2022/01/06 07:35:35;;;;;;;25.30;10.07;;;;;;;-141.29;100.00;58932.97;5075298;28;20443;-73
2022/01/06 07:38:02;;;;;;;17.17;9.93;;;;;;;-141.29;100.00;58932.97;5073191;28;20443;-76
2022/01/06 07:40:29;;;;;;;24.53;9.93;;;;;;;-141.29;100.00;58932.97;5071353;28;20446;-77
2022/01/06 07:42:56;;;;;;;20.23;9.77;;;;;;;-141.29;100.00;58932.97;5070441;28;20441;-75
2022/01/06 07:45:24;;;;;;;15.23;9.20;;;;;;;-141.29;100.00;58932.97;5071057;28;20486;-76
2022/01/06 07:48:00;;;;;;;19.17;9.40;;;;;;;-141.29;100.00;58932.97;5053443;28;20446;-76
2022/01/06 07:50:30;;;;;;;18.67;8.83;;;;;;;-141.29;100.00;58932.97;5071219;28;20442;-75
2022/01/06 07:52:57;;;;;;;19.63;9.83;;;;;;;-141.29;100.00;58932.97;5073144;28;20438;-74
2022/01/06 07:55:25;;;;;;;17.53;10.07;;;;;;;-141.29;100.00;58932.97;5075198;28;20450;-74
2022/01/06 07:57:55;;;;;;;18.93;9.00;;;;;;;-141.29;100.00;58932.97;5076366;28;20435;-75
2022/01/06 08:00:23;;;;;;;18.67;9.93;;;;;;;-141.29;100.00;58932.97;5075362;28;20433;-75
2022/01/06 08:02:50;;;;;;;17.03;9.20;;;;;;;-141.29;100.00;58932.97;5074565;28;20557;-73
2022/01/06 08:05:20;;;;;;;25.57;11.43;;;;;;;-141.29;100.00;58932.97;5074858;28;20972;-74
2022/01/06 08:07:48;;;;;;;25.67;11.27;;;;;;;-141.29;100.00;58932.97;5075189;28;20529;-75
2022/01/06 08:10:18;;;;;;;20.40;11.37;;;;;;;-141.29;100.00;58932.97;5074475;28;20490;-75
2022/01/06 08:12:45;;;;;;;20.63;10.60;;;;;;;-141.29;100.00;58932.97;5075091;28;20487;-74
2022/01/06 08:15:14;;;;;;;32.40;12.93;;;;;;;-141.29;100.00;58932.97;5073260;28;20449;-75
2022/01/06 08:17:46;;;;;;;30.23;11.27;;;;;;;-141.29;100.00;58932.97;5074440;28;20950;-74
2022/01/06 08:20:16;;;;;;;24.90;11.23;;;;;;;-141.29;100.00;58932.97;5074526;28;20455;-74
2022/01/06 08:22:46;;;;;;;17.23;10.07;;;;;;;-141.29;100.00;58932.97;5074221;28;20969;-76
2022/01/06 08:25:18;;;;;;;22.03;10.67;;;;;;;-141.29;100.00;58932.97;5074299;28;20450;-74
2022/01/06 08:27:45;;;;;;;19.17;10.47;;;;;;;-141.29;100.00;58932.97;5072962;28;20453;-74
2022/01/06 08:30:13;;;;;;;17.63;10.30;;;;;;;-141.29;100.00;58932.97;5074075;28;21004;-76
2022/01/06 08:32:41;;;;;;;30.40;9.40;;;;;;;-141.29;100.00;58932.97;5074102;28;20446;-74
2022/01/06 08:35:09;;;;;;;17.53;9.67;;;;;;;-141.29;100.00;58932.97;5073834;28;20942;-74
2022/01/06 08:37:36;;;;;;;15.80;8.53;;;;;;;-141.29;100.00;58932.97;5073819;28;20439;-73
2022/01/06 08:40:04;;;;;;;14.47;8.93;;;;;;;-141.29;100.00;58932.97;5073977;28;20531;-75
2022/01/06 08:42:33;;;;;;;13.07;8.37;;;;;;;-141.29;100.00;58932.97;5074052;28;20435;-75
2022/01/06 08:45:02;;;;;;;19.23;9.13;;;;;;;-141.29;100.00;58932.97;5073928;28;20482;-73
2022/01/06 08:47:30;;;;;;;15.63;8.83;;;;;;;-141.29;100.00;58932.97;5073936;28;20466;-75
2022/01/06 08:49:57;;;;;;;14.47;8.00;;;;;;;-141.29;100.00;58932.97;5073688;28;20547;-75
2022/01/06 08:52:27;;;;;;;20.47;8.83;;;;;;;-141.29;100.00;58932.97;5073829;28;20439;-75
2022/01/06 08:54:56;;;;;;;20.87;8.80;;;;;;;-141.29;100.00;58932.97;5073492;28;20446;-75
2022/01/06 08:57:24;;;;;;;13.67;8.03;;;;;;;-141.29;100.00;58932.97;5073449;28;20644;-75
2022/01/06 08:59:52;;;;;;;15.50;8.47;;;;;;;-141.29;100.00;58932.97;5073717;28;20454;-75
2022/01/06 09:02:20;;;;;;;17.10;8.00;;;;;;;-141.29;100.00;58932.97;5073468;28;21003;-75
2022/01/06 09:04:52;;;;;;;13.30;7.83;;;;;;;-141.29;100.00;58932.97;5072257;28;20442;-74
2022/01/06 09:07:20;;;;;;;15.20;8.47;;;;;;;-141.29;100.00;58932.97;5073531;28;20435;-75
2022/01/06 09:09:50;;;;;;;21.83;8.30;;;;;;;-141.29;100.00;58932.97;5072942;28;20228;-74
2022/01/06 09:12:19;;;;;;;15.73;7.93;;;;;;;-141.29;100.00;58932.97;5073563;28;20253;-76
2022/01/06 09:14:55;;;;;;;13.37;7.37;;;;;;;-141.29;100.00;58932.97;5072122;28;20530;-75
2022/01/06 09:17:26;;;;;;;14.50;8.67;;;;;;;-141.29;100.00;58932.97;5068007;28;20453;-75
2022/01/06 09:19:55;;;;;;;18.47;7.23;;;;;;;-141.29;100.00;58932.97;5073694;28;20258;-75
2022/01/06 09:22:25;;;;;;;17.57;7.97;;;;;;;-141.29;100.00;58932.97;5072966;28;20200;-74
2022/01/06 09:24:54;;;;;;;17.17;8.80;;;;;;;-141.29;100.00;58932.97;5073175;28;20196;-75
2022/01/06 09:27:23;;;;;;;16.73;8.40;;;;;;;-141.29;100.00;58932.97;5073150;28;20663;-74
2022/01/06 09:29:53;;;;;;;15.30;8.23;;;;;;;-141.29;100.00;58932.97;5072963;28;20234;-75
2022/01/06 09:32:26;;;;;;;14.70;8.43;;;;;;;-141.29;100.00;58932.97;5072893;28;20200;-75
2022/01/06 09:34:55;;;;;;;15.87;7.97;;;;;;;-141.29;100.00;58932.97;5073663;28;20281;-74
2022/01/06 09:37:22;;;;;;;14.97;8.57;;;;;;;-141.29;100.00;58932.97;5073017;28;20200;-73
2022/01/06 09:39:56;;;;;;;19.40;8.87;;;;;;;-141.29;100.00;58932.97;5072653;28;20204;-76
2022/01/06 09:42:23;;;;;;;17.33;8.23;;;;;;;-141.29;100.00;58932.97;5072607;28;20192;-75
2022/01/06 09:44:53;;;;;;;16.93;8.37;;;;;;;-141.29;100.00;58932.97;5076630;28;20251;-73
2022/01/06 09:47:22;;;;;;;18.87;8.43;;;;;;;-141.29;100.00;58932.97;5072800;28;20208;-74
2022/01/06 09:49:53;;;;;;;16.27;8.90;;;;;;;-141.29;100.00;58932.97;5072723;28;20292;-75
2022/01/06 09:52:22;;;;;;;14.47;8.57;;;;;;;-141.29;100.00;58932.97;5072849;28;20200;-75
2022/01/06 09:54:52;;;;;;;13.87;9.57;;;;;;;-141.29;100.00;58932.97;5072943;28;20204;-74
2022/01/06 09:57:20;;;;;;;13.43;8.57;;;;;;;-141.29;100.00;58932.97;5072867;28;20196;-73
2022/01/06 09:59:49;;;;;;;14.47;9.13;;;;;;;-141.29;100.00;58932.97;5072086;28;20196;-75
2022/01/06 10:02:21;;;;;;;16.47;9.20;;;;;;;-141.29;100.00;58932.97;5072184;28;20205;-75
2022/01/06 10:05:01;;;;;;;16.30;9.43;;;;;;;-141.29;100.00;58932.97;5072756;28;20583;-74
2022/01/06 10:07:36;;;;;;;16.80;8.77;;;;;;;-141.29;100.00;58932.97;5072373;28;20192;-75
2022/01/06 10:10:07;;;;;;;15.97;8.73;;;;;;;-141.29;100.00;58932.97;5072034;28;20223;-76
2022/01/06 10:12:38;;;;;;;17.97;9.67;;;;;;;-141.29;100.00;58932.97;5072265;28;20235;-76
2022/01/06 10:15:17;;;;;;;14.83;8.83;;;;;;;-141.29;100.00;58932.97;5072612;28;20204;-74
2022/01/06 10:17:44;;;;;;;20.17;8.23;;;;;;;-141.29;100.00;58932.97;5072194;28;20273;-74
2022/01/06 10:20:15;;;;;;;13.10;8.37;;;;;;;-141.29;100.00;58932.97;5071205;28;20204;-74
2022/01/06 10:22:47;;;;;;;15.27;8.13;;;;;;;-141.29;100.00;58932.97;5072291;28;20295;-75
2022/01/06 10:25:24;;;;;;;17.77;8.50;;;;;;;-141.29;100.00;58932.97;5071767;28;20200;-75
2022/01/06 10:27:56;;;;;;;17.17;8.87;;;;;;;-141.29;100.00;58932.97;5071811;28;20207;-74
2022/01/06 10:30:27;;;;;;;13.63;8.03;;;;;;;-141.29;100.00;58932.97;5071723;28;20262;-76
2022/01/06 10:32:59;;;;;;;15.13;8.43;;;;;;;-141.29;100.00;58932.97;5072279;28;20204;-76
2022/01/06 10:35:28;;;;;;;15.97;8.27;;;;;;;-141.29;100.00;58932.97;5072583;28;20201;-74
2022/01/06 10:37:58;;;;;;;17.23;8.83;;;;;;;-141.29;100.00;58932.97;5071815;28;20208;-75
2022/01/06 10:40:30;;;;;;;14.87;8.30;;;;;;;-141.29;100.00;58932.97;5071559;28;20200;-76
2022/01/06 10:43:05;;;;;;;19.50;8.27;;;;;;;-141.29;100.00;58932.97;5071463;28;20674;-74
2022/01/06 10:45:34;;;;;;;33.77;9.80;;;;;;;-141.29;100.00;58932.97;5071358;28;20231;-76
2022/01/06 10:48:05;;;;;;;22.80;9.13;;;;;;;-141.29;100.00;58932.97;5071305;28;20583;-74
2022/01/06 10:50:35;;;;;;;29.73;8.50;;;;;;;-141.29;100.00;58932.97;5071432;28;20318;-74
2022/01/06 10:53:05;;;;;;;54.80;8.87;;;;;;;-141.29;100.00;58932.97;5071345;28;20610;-74
2022/01/06 10:55:39;;;;;;;15.47;7.53;;;;;;;-141.29;100.00;58932.97;5072098;28;20200;-75
2022/01/06 10:58:08;;;;;;;15.53;5.20;;;;;;;-141.29;100.00;58932.97;5071609;28;20654;-74
2022/01/06 11:00:38;;;;;;;16.87;6.83;;;;;;;-141.29;100.00;58932.97;5072164;28;20291;-76
2022/01/06 11:03:09;;;;;;;15.63;10.20;;;;;;;-141.29;100.00;58932.97;5071463;28;20201;-74
2022/01/06 11:05:39;;;;;;;14.20;7.17;;;;;;;-141.29;100.00;58932.97;5071508;28;20287;-75
2022/01/06 11:08:09;;;;;;;9.93;5.87;;;;;;;-141.29;100.00;58932.97;5071658;28;20228;-74
2022/01/06 11:10:47;;;;;;;25.03;5.83;;;;;;;-141.29;100.00;58932.97;5072008;28;20234;-75
2022/01/06 11:13:17;;;;;;;12.23;4.97;;;;;;;-141.29;100.00;58932.97;5071766;28;20584;-75